Latest Weather Observations for Perth

IDW60801

Issued at 3:05 pm WST Sunday 23 November 2014 (issued every 30 minutes, with the page automatically refreshed every 10 minutes)

About weather observations | Map of weather stations | Latest weather observations for WA | Other Formats
Station Details ID: 009225 Name: PERTH METRO Lat: -31.92 Lon: 115.87 Height: 24.9 m
Data from the previous 72 hours. | See also: Recent months at Perth
Date/Time
WST
Temp
°C
App
Temp
°C
Dew
Point
Rel
Hum
%
Delta-T
°C
Wind Press
QNH
hPa
Press
MSL
hPa
Rain
since 9 am
mm
Dir
 
Spd
km/h
Gust
km/h
Spd
kts
Gust
kts
23/03:00pm 20.9 17.1 9.2 47 6.2 SSW 19 39 10 21 1016.9 1016.8 0.0
23/02:30pm 21.7 18.4 10.8 50 6.0 SSW 19 33 10 18 1017.0 1016.9 0.0
23/02:00pm 21.5 18.2 10.9 51 5.8 SW 19 32 10 17 1017.1 1017.0 0.0
23/01:30pm 21.0 17.5 10.2 50 5.9 SW 19 28 10 15 1017.3 1017.2 0.0
23/01:00pm 21.3 17.1 8.2 43 6.8 SW 20 30 11 16 1017.3 1017.2 0.0
23/12:30pm 21.3 17.3 10.5 50 5.9 SW 22 32 12 17 1017.5 1017.4 0.0
23/12:00pm 21.6 18.7 11.0 51 5.8 SW 17 26 9 14 1017.7 1017.6 0.0
23/11:30am 20.6 17.8 11.2 55 5.2 WSW 17 28 9 15 1017.7 1017.6 0.0
23/11:00am 21.6 18.1 10.1 48 6.2 SSW 19 28 10 15 1017.7 1017.6 0.0
23/10:30am 21.2 17.3 9.4 47 6.3 WSW 20 28 11 15 1017.8 1017.7 0.0
23/10:00am 21.8 18.6 11.2 51 5.9 SSW 19 32 10 17 1017.6 1017.5 0.0
23/09:30am 21.3 17.7 9.9 48 6.2 SSW 19 30 10 16 1017.5 1017.4 0.0
23/09:00am 19.5 16.8 10.5 56 4.9 SW 15 30 8 16 1017.5 1017.4 0.0
23/08:30am 19.5 17.1 11.5 60 4.4 SSW 15 24 8 13 1017.5 1017.4 0.0
23/08:00am 18.7 16.3 11.5 63 3.9 SW 15 32 8 17 1017.5 1017.4 0.0
23/07:30am 18.8 15.6 11.4 62 4.1 SSW 19 32 10 17 1017.0 1016.9 0.0
23/07:00am 18.9 15.6 9.4 54 5.0 SW 17 28 9 15 1016.6 1016.5 0.0
23/06:30am 18.5 16.9 10.1 58 4.5 SW 9 17 5 9 1016.3 1016.2 0.0
23/06:00am 17.1 14.5 9.5 61 4.0 SW 13 26 7 14 1016.0 1015.9 0.0
23/05:30am 17.2 14.7 9.6 61 4.0 SW 13 20 7 11 1015.6 1015.5 0.0
23/05:00am 17.3 14.4 9.7 61 4.0 SW 15 24 8 13 1015.3 1015.2 0.0
23/04:30am 16.7 14.4 9.1 61 3.9 SW 11 17 6 9 1015.1 1015.0 0.0
23/04:00am 17.2 14.3 9.6 61 4.0 SW 15 26 8 14 1014.9 1014.8 0.0
23/03:30am 17.2 14.7 9.6 61 4.0 SW 13 22 7 12 1014.8 1014.7 0.0
23/03:00am 17.3 13.9 9.2 59 4.2 SW 17 28 9 15 1014.7 1014.6 0.0
23/02:30am 17.3 14.7 9.5 60 4.1 SW 13 28 7 15 1014.6 1014.5 0.0
23/02:00am 16.9 14.0 8.1 56 4.5 SW 13 20 7 11 1014.6 1014.5 0.0
23/01:30am 17.3 14.3 9.2 59 4.2 SW 15 28 8 15 1014.7 1014.6 0.0
23/01:00am 17.5 14.4 10.4 63 3.8 SW 17 30 9 16 1014.9 1014.8 0.0
23/12:30am 17.8 15.6 10.7 63 3.8 SW 13 28 7 15 1015.0 1014.9 0.0
23/12:00am 17.7 16.3 11.0 65 3.6 SW 9 19 5 10 1015.1 1015.0 0.0
 
Date/Time
WST
Temp
°C
App
Temp
°C
Dew
Point
Rel
Hum
%
Delta-T
°C
Wind Press
QNH
hPa
Press
MSL
hPa
Rain
since 9 am
mm
Dir
 
Spd
km/h
Gust
km/h
Spd
kts
Gust
kts
22/11:30pm 17.5 15.1 11.3 67 3.4 SW 15 24 8 13 1015.2 1015.1 0.0
22/11:00pm 17.6 15.8 12.1 70 3.0 SW 13 24 7 13 1015.3 1015.2 0.0
22/10:30pm 17.7 16.5 12.8 73 2.7 SW 11 17 6 9 1015.5 1015.4 0.0
22/10:00pm 17.6 16.0 12.7 73 2.7 SW 13 19 7 10 1015.7 1015.6 0.0
22/09:30pm 17.5 16.4 13.0 75 2.5 SW 11 19 6 10 1015.7 1015.6 0.0
22/09:00pm 17.2 16.5 13.3 78 2.2 SSW 9 17 5 9 1015.5 1015.4 0.0
22/08:30pm 17.4 16.7 13.3 77 2.3 SSW 9 20 5 11 1015.5 1015.4 0.0
22/08:00pm 17.2 16.5 13.3 78 2.2 SW 9 19 5 10 1015.4 1015.3 0.0
22/07:30pm 17.4 15.8 12.9 75 2.5 SW 13 20 7 11 1015.1 1015.0 0.0
22/07:00pm 18.0 15.9 12.5 70 3.1 SW 15 24 8 13 1015.0 1014.9 0.0
22/06:30pm 18.3 15.9 11.4 64 3.8 SW 15 22 8 12 1014.9 1014.8 0.0
22/06:00pm 19.0 16.1 11.1 60 4.3 WSW 17 24 9 13 1014.6 1014.5 0.0
22/05:30pm 19.9 17.6 11.7 59 4.5 SW 15 28 8 15 1014.4 1014.3 0.0
22/05:00pm 20.0 16.9 11.7 59 4.6 SW 19 32 10 17 1014.4 1014.3 0.0
22/04:30pm 21.1 17.8 9.7 48 6.1 WSW 17 28 9 15 1014.4 1014.3 0.0
22/04:00pm 21.5 18.2 9.7 47 6.4 SW 17 28 9 15 1014.4 1014.3 0.0
22/03:30pm 21.9 18.7 10.1 47 6.4 WSW 17 28 9 15 1014.3 1014.2 0.0
22/03:00pm 22.0 18.6 10.5 48 6.3 WSW 19 32 10 17 1014.1 1014.0 0.0
22/02:30pm 22.2 18.9 11.0 49 6.2 SW 19 28 10 15 1014.1 1014.0 0.0
22/02:00pm 21.5 18.0 10.3 49 6.1 SW 19 28 10 15 1014.2 1014.1 0.0
22/01:30pm 22.6 20.4 10.7 47 6.6 WSW 13 24 7 13 1014.2 1014.1 0.0
22/01:00pm 22.0 19.2 9.9 46 6.6 WSW 15 26 8 14 1014.3 1014.2 0.0
22/12:30pm 22.4 19.5 10.9 48 6.4 SW 17 26 9 14 1014.3 1014.2 0.0
22/12:00pm 22.5 20.1 11.3 49 6.2 W 15 22 8 12 1014.3 1014.2 0.0
22/11:30am 21.6 19.3 11.9 54 5.4 WSW 15 28 8 15 1014.3 1014.2 0.0
22/11:00am 20.7 18.5 10.8 53 5.4 SSW 13 28 7 15 1014.3 1014.2 0.0
22/10:30am 21.2 19.5 12.3 57 5.0 SW 13 19 7 10 1014.4 1014.3 0.0
22/10:00am 20.6 19.1 11.8 57 4.9 SW 11 20 6 11 1014.4 1014.3 0.0
22/09:30am 18.8 16.8 11.6 63 4.0 SW 13 22 7 12 1014.5 1014.4 0.0
22/09:00am 19.6 19.2 12.4 63 4.0 SSW 6 13 3 7 1014.3 1014.2 1.0
22/08:30am 17.9 18.4 14.0 78 2.2 NNE 4 7 2 4 1014.2 1014.1 1.0
22/08:00am 16.5 16.7 14.3 87 1.3 NNE 6 6 3 3 1014.2 1014.1 1.0
22/07:30am 16.2 16.1 14.0 87 1.2 NW 7 11 4 6 1014.3 1014.2 0.8
22/07:00am 16.1 16.7 13.2 83 1.6 ENE 2 7 1 4 1013.9 1013.8 0.2
22/06:30am 15.7 16.6 13.0 84 1.5 CALM 0 0 0 0 1013.6 1013.5 0.2
22/06:00am 15.0 16.0 13.2 89 1.0 CALM 0 7 0 4 1013.4 1013.3 0.2
22/05:30am 14.2 15.1 12.9 92 0.7 CALM 0 0 0 0 1013.3 1013.2 0.2
22/05:00am 13.8 14.6 12.4 91 0.8 CALM 0 0 0 0 1012.9 1012.8 0.2
22/04:30am 13.8 14.6 12.4 91 0.8 CALM 0 0 0 0 1012.6 1012.5 0.2
22/04:00am 14.4 15.1 12.3 87 1.1 CALM 0 0 0 0 1012.5 1012.4 0.2
22/03:30am 15.5 15.9 12.4 82 1.7 SSW 2 9 1 5 1012.5 1012.4 0.2
22/03:00am 16.2 15.3 12.6 79 2.0 SW 9 19 5 10 1012.4 1012.3 0.2
22/02:30am 16.2 14.7 12.0 76 2.3 SSW 11 20 6 11 1012.3 1012.2 0.2
22/02:00am 16.9 15.4 12.0 73 2.7 SW 11 17 6 9 1012.4 1012.3 0.2
22/01:30am 16.9 15.6 12.4 75 2.5 SW 11 20 6 11 1012.4 1012.3 0.2
22/01:00am 17.0 16.1 12.5 75 2.5 SW 9 17 5 9 1012.5 1012.4 0.2
22/12:30am 17.0 16.3 11.5 70 3.0 SW 6 11 3 6 1012.6 1012.5 0.2
22/12:00am 17.1 16.5 12.4 74 2.6 SW 7 15 4 8 1012.7 1012.6 0.2
 
Date/Time
WST
Temp
°C
App
Temp
°C
Dew
Point
Rel
Hum
%
Delta-T
°C
Wind Press
QNH
hPa
Press
MSL
hPa
Rain
since 9 am
mm
Dir
 
Spd
km/h
Gust
km/h
Spd
kts
Gust
kts
21/11:30pm 16.7 16.9 13.0 79 2.1 SW 4 7 2 4 1013.0 1012.9 0.2
21/11:00pm 17.5 16.4 12.0 70 3.0 SW 9 15 5 8 1013.0 1012.9 0.2
21/10:30pm 17.7 16.5 11.5 67 3.4 SW 9 13 5 7 1013.2 1013.1 0.2
21/10:00pm 17.6 16.0 11.4 67 3.4 SW 11 17 6 9 1013.3 1013.2 0.2
21/09:30pm 18.0 16.0 11.6 66 3.5 WSW 13 20 7 11 1013.4 1013.3 0.2
21/09:00pm 17.8 16.1 12.5 71 2.9 SW 13 24 7 13 1013.2 1013.1 0.2
21/08:30pm 17.7 16.7 11.0 65 3.6 SW 7 11 4 6 1013.0 1012.9 0.2
21/08:00pm 17.9 16.5 10.8 63 3.8 WSW 9 13 5 7 1012.8 1012.7 0.2
21/07:30pm 18.1 17.0 10.7 62 4.0 WSW 7 15 4 8 1012.7 1012.6 0.2
21/07:00pm 18.3 16.1 10.7 61 4.1 WSW 13 20 7 11 1012.6 1012.5 0.2
21/06:30pm 19.0 17.1 10.6 58 4.5 WSW 11 15 6 8 1012.4 1012.3 0.2
21/06:00pm 19.6 17.0 10.6 56 4.9 WSW 15 24 8 13 1011.9 1011.9 0.2
21/05:30pm 19.7 16.9 10.1 54 5.2 WSW 15 22 8 12 1012.0 1012.0 0.2
21/05:00pm 20.8 18.9 11.7 56 5.1 WSW 13 24 7 13 1011.7 1011.7 0.2
21/04:30pm 20.4 18.3 11.3 56 5.0 WSW 13 26 7 14 1012.0 1012.0 0.2
21/04:00pm 21.2 18.0 11.2 53 5.5 SW 19 32 10 17 1012.1 1012.1 0.2
21/03:30pm 22.3 19.7 12.0 52 5.8 WSW 17 26 9 14 1012.1 1012.1 0.2
21/03:00pm 22.1 19.4 11.8 52 5.8 WSW 17 28 9 15 1012.1 1012.1 0.2
21/02:30pm 21.6 19.2 11.3 52 5.7 WSW 15 26 8 14 1011.9 1011.9 0.2
21/02:00pm 22.2 19.8 12.5 54 5.5 WSW 17 26 9 14 1012.0 1012.0 0.2
21/01:30pm 21.8 19.9 11.8 53 5.6 WSW 13 24 7 13 1012.1 1012.1 0.2
21/01:00pm 22.4 20.2 13.2 56 5.3 WSW 17 26 9 14 1012.3 1012.2 0.2
21/12:30pm 21.1 18.5 12.0 56 5.1 WSW 17 28 9 15 1012.7 1012.6 0.2
21/12:00pm 20.8 17.9 12.2 58 4.8 WSW 19 28 10 15 1012.7 1012.6 0.2
21/11:30am 20.6 18.7 13.1 62 4.3 WSW 15 28 8 15 1012.9 1012.8 0.2
21/11:00am 20.1 18.1 13.8 67 3.6 SW 17 28 9 15 1012.9 1012.8 0.0
21/10:30am 19.9 17.8 13.6 67 3.6 WSW 17 26 9 14 1012.8 1012.7 0.0
21/10:00am 20.8 19.8 14.5 67 3.7 W 13 24 7 13 1012.9 1012.8 0.0
21/09:30am 18.7 17.9 15.0 79 2.2 WSW 13 22 7 12 1013.0 1012.9 0.0
21/09:00am 19.5 19.3 15.8 79 2.2 WSW 11 19 6 10 1012.8 1012.7 4.6
21/08:30am 19.1 18.4 15.4 79 2.2 W 13 24 7 13 1012.7 1012.6 4.6
21/08:00am 19.4 19.9 16.6 84 1.7 W 9 20 5 11 1012.4 1012.3 4.6
21/07:30am 17.4 18.1 16.1 92 0.8 WSW 7 13 4 7 1012.1 1012.1 4.6
21/07:00am 17.3 16.9 16.2 93 0.7 WSW 13 28 7 15 1012.1 1012.1 4.0
21/06:30am 17.7 16.9 16.0 90 1.0 WSW 15 24 8 13 1011.5 1011.5 2.6
21/06:00am 17.8 18.0 15.8 88 1.2 W 9 17 5 9 1011.3 1011.3 1.2
21/05:30am 18.5 18.7 14.6 78 2.3 WNW 7 11 4 6 1011.0 1011.0 0.8
21/05:00am 17.9 18.1 14.6 81 1.9 W 7 13 4 7 1011.0 1011.0 0.8
21/04:30am 18.3 18.1 14.6 79 2.1 W 9 17 5 9 1010.8 1010.8 0.8
21/04:00am 18.0 18.0 14.3 79 2.1 W 7 13 4 7 1010.8 1010.8 0.8
21/03:30am 17.7 17.6 13.8 78 2.2 W 7 11 4 6 1010.8 1010.8 0.8
21/03:00am 18.0 17.5 13.9 77 2.3 W 9 19 5 10 1010.8 1010.8 0.8
21/02:30am 18.1 18.0 13.8 76 2.5 W 7 15 4 8 1010.8 1010.8 0.8
21/02:00am 18.1 17.6 13.8 76 2.5 W 9 17 5 9 1011.0 1011.0 0.8
21/01:30am 18.0 17.6 14.1 78 2.2 W 9 15 5 8 1011.3 1011.3 0.8
21/01:00am 18.1 18.5 15.2 83 1.7 W 7 13 4 7 1011.5 1011.5 0.8
21/12:30am 18.2 18.1 13.9 76 2.5 WNW 7 17 4 9 1011.8 1011.8 0.8
21/12:00am 18.3 18.2 13.8 75 2.6 W 7 13 4 7 1012.0 1012.0 0.8
 
Date/Time
WST
Temp
°C
App
Temp
°C
Dew
Point
Rel
Hum
%
Delta-T
°C
Wind Press
QNH
hPa
Press
MSL
hPa
Rain
since 9 am
mm
Dir
 
Spd
km/h
Gust
km/h
Spd
kts
Gust
kts
20/11:30pm 18.9 18.0 13.7 72 3.0 W 11 17 6 9 1012.4 1012.3 0.8
20/11:00pm 19.1 18.2 13.7 71 3.1 W 11 19 6 10 1012.7 1012.6 0.8
20/10:30pm 19.2 18.7 13.8 71 3.1 W 9 17 5 9 1012.9 1012.8 0.8
20/10:00pm 19.3 18.0 13.7 70 3.2 W 13 24 7 13 1013.0 1012.9 0.8
20/09:30pm 19.2 18.6 13.4 69 3.3 WNW 9 17 5 9 1013.1 1013.0 0.8
20/09:00pm 18.8 17.7 13.0 69 3.3 W 11 22 6 12 1013.2 1013.1 0.8
20/08:30pm 18.6 18.1 12.8 69 3.3 WNW 7 13 4 7 1013.3 1013.2 0.8
20/08:00pm 18.7 17.9 12.9 69 3.3 W 9 46 5 25 1013.1 1013.0 0.8
20/07:30pm 18.9 17.9 12.4 66 3.6 W 9 15 5 8 1012.9 1012.8 0.8
20/07:00pm 19.0 17.5 11.8 63 4.0 W 11 20 6 11 1012.9 1012.8 0.8
20/06:30pm 19.6 17.3 11.9 61 4.3 W 15 26 8 14 1012.8 1012.7 0.8
20/06:00pm 20.4 17.8 12.1 59 4.6 W 17 28 9 15 1012.7 1012.6 0.8
20/05:30pm 21.0 18.8 13.4 62 4.4 W 17 32 9 17 1012.7 1012.6 0.8
20/05:00pm 20.8 18.4 13.7 64 4.1 W 19 30 10 16 1012.7 1012.6 0.8
20/04:30pm 21.2 19.3 13.1 60 4.6 W 15 24 8 13 1012.7 1012.6 0.8
20/04:00pm 22.4 20.7 13.5 57 5.2 W 15 30 8 16 1012.8 1012.7 0.8
20/03:30pm 22.2 20.1 13.5 57 5.0 W 17 30 9 16 1012.7 1012.6 0.8

Other Formats:

Comma delimited format used in spreadsheet applications
http://www.bom.gov.au/fwo/IDW60801/IDW60801.94608.axf

JavaScript Object Notation format (JSON) in row-major order
http://www.bom.gov.au/fwo/IDW60801/IDW60801.94608.json